Omaha, AR

5:37 AM CST on December 26, 2014 (GMT -0600)
Branson | Change Station
CLOSE
Current Station
Airport
Location: Branson,
Elevation: 1302 ft
Nearby Weather Stations

Elev 1302 ft 36.53 °N, 93.20 °W | Updated 22 minutes ago

Partly Cloudy
Partly Cloudy
41 °F
Feels Like 36 °F
N
8
Wind Variable Wind from SE

Today
High -- | Low -- °F
--% Chance of Precip.
Yesterday
High -- | Low -- °F
Precip. -- in
7:22 AM 5:03 PM
Waxing Crescent, 25% visible
Pressure 30.01 in
Visibility 10.0 miles
Clouds Scattered Clouds 3200 ft
Windchill 36 °F
Dew Point 36 °F
Humidity 81%
Rainfall 0.00 in
Snow Depth Not available.
UV 0 out of 12
Pollen 5.10 out of 12
Air Quality Not available.
Flu Activity Not available.
METAR KBBG 261115Z AUTO 14007KT 10SM SCT032 05/02 A3001 RMK AO2

More Conditions Fewer Conditions

Pressure 30.01 in
Visibility 10.0 miles
Clouds Scattered Clouds 3200 ft
Windchill 36 °F
Dew Point 36 °F
Humidity 81%
Rainfall 0.00 in
Snow Depth Not available.
UV 0 out of 12
Pollen 5.10 out of 12
Air Quality Not available.
Flu Activity Not available.
METAR KBBG 261115Z AUTO 14007KT 10SM SCT032 05/02 A3001 RMK AO2

More Conditions Fewer Conditions

10-Day Weather Forecast

Almanac

Astronomy

Dec. 26, 2014 Rise Set
Actual Time
Civil Twilight
Nautical Twilight
Astronomical Twilight
Moon
Length of Visible Light
Length of Day
Tomorrow will be .
, % of the Moon is Illuminated

Today's Extremes

State Highs State Lows

Community

WunderPhotos

Upload Photos

1,780,580 photos uploaded!

WunderBlogs® & News

Nearby

Air Quality

  Air Quality AQ Index Pollutant
Not available.

Snow Depth

Station Depth Elevation

Earthquake Activity

City Distance Mag. Time & Date
Minimum magnitude displayed is 2.5.

Coastal Water Temperatures

Place Temperature

Nearby Weather Stations